createdAt,value
2017-11-10T00:00:53.795Z,0
2017-11-10T00:01:53.780Z,0
2017-11-10T00:02:53.771Z,0
2017-11-10T00:03:54.106Z,0
2017-11-10T00:04:53.742Z,0
2017-11-10T00:05:54.099Z,0
2017-11-10T00:06:53.711Z,0
2017-11-10T00:07:54.042Z,0
2017-11-10T00:08:53.684Z,0
2017-11-10T00:09:54.019Z,0
2017-11-10T00:10:53.656Z,0
2017-11-10T00:11:53.988Z,0
2017-11-10T00:12:53.968Z,0
2017-11-10T00:13:53.614Z,0
2017-11-10T00:14:53.606Z,0
2017-11-10T00:15:53.929Z,0
2017-11-10T00:16:53.596Z,0
2017-11-10T00:17:53.901Z,0
2017-11-10T00:18:53.545Z,0
2017-11-10T00:19:53.537Z,0
2017-11-10T00:20:53.517Z,0
2017-11-10T00:21:53.501Z,0
2017-11-10T00:22:53.490Z,0
2017-11-10T00:23:53.475Z,0
2017-11-10T00:24:53.801Z,0
2017-11-10T00:25:53.447Z,0
2017-11-10T00:26:53.783Z,0
2017-11-10T00:27:53.762Z,0
2017-11-10T00:28:53.403Z,0
2017-11-10T00:29:53.389Z,0
2017-11-10T00:30:53.727Z,0
2017-11-10T00:31:53.705Z,0
2017-11-10T00:32:53.349Z,0
2017-11-10T00:33:53.692Z,0
2017-11-10T00:34:53.321Z,0
2017-11-10T00:35:53.306Z,0
2017-11-10T00:36:53.642Z,0
2017-11-10T00:37:53.280Z,0
2017-11-10T00:38:53.608Z,0
2017-11-10T00:39:53.601Z,0
2017-11-10T00:40:53.236Z,0
2017-11-10T00:41:53.565Z,0
2017-11-10T00:42:53.553Z,0
2017-11-10T00:43:53.214Z,0
2017-11-10T00:44:53.180Z,0
2017-11-10T00:45:53.184Z,0
2017-11-10T00:46:53.151Z,0
2017-11-10T00:47:53.489Z,0
2017-11-10T00:48:53.126Z,0
2017-11-10T00:49:53.450Z,0
2017-11-10T00:50:53.097Z,0
2017-11-10T00:51:53.427Z,0
2017-11-10T00:52:53.069Z,0
2017-11-10T00:53:53.057Z,0
2017-11-10T00:54:53.037Z,0
2017-11-10T00:55:53.369Z,0
2017-11-10T00:56:53.366Z,0
2017-11-10T00:57:53.342Z,0
2017-11-10T00:58:53.329Z,0
2017-11-10T00:59:52.971Z,0
2017-11-10T01:00:52.960Z,0
2017-11-10T01:01:53.290Z,0
2017-11-10T01:02:52.930Z,0
2017-11-10T01:03:53.257Z,0
2017-11-10T01:04:53.242Z,0
2017-11-10T01:05:53.228Z,0
2017-11-10T01:06:52.870Z,0
2017-11-10T01:07:52.881Z,0
2017-11-10T01:08:52.843Z,0
2017-11-10T01:09:53.182Z,0
2017-11-10T01:10:53.171Z,0
2017-11-10T01:11:52.805Z,0
2017-11-10T01:12:53.129Z,0
2017-11-10T01:13:52.773Z,0
2017-11-10T01:14:52.760Z,0
2017-11-10T01:15:53.089Z,0
2017-11-10T01:16:52.732Z,0
2017-11-10T01:17:52.718Z,0
2017-11-10T01:18:53.047Z,0
2017-11-10T01:19:52.691Z,0
2017-11-10T01:20:52.677Z,0
2017-11-10T01:21:52.662Z,0
2017-11-10T01:22:52.987Z,0
2017-11-10T01:23:52.980Z,0
2017-11-10T01:24:52.633Z,0
2017-11-10T01:25:52.605Z,0
2017-11-10T01:26:52.951Z,0
2017-11-10T01:27:52.930Z,0
2017-11-10T01:28:52.906Z,0
2017-11-10T01:29:52.571Z,0
2017-11-10T01:30:52.884Z,0
2017-11-10T01:31:52.533Z,0
2017-11-10T01:32:52.537Z,0
2017-11-10T01:33:52.490Z,0
2017-11-10T01:34:52.480Z,0
2017-11-10T01:35:52.816Z,0
2017-11-10T01:36:52.806Z,0
2017-11-10T01:37:52.778Z,0
2017-11-10T01:38:52.761Z,0
2017-11-10T01:39:52.771Z,0
2017-11-10T01:40:52.395Z,0
2017-11-10T01:41:52.720Z,0
2017-11-10T01:42:52.366Z,0
2017-11-10T01:43:52.351Z,0
2017-11-10T01:44:52.343Z,0
2017-11-10T01:45:52.665Z,0
2017-11-10T01:46:52.653Z,0
2017-11-10T01:47:52.295Z,0
2017-11-10T01:48:52.283Z,0
2017-11-10T01:49:52.608Z,0
2017-11-10T01:50:52.601Z,0
2017-11-10T01:51:52.239Z,0
2017-11-10T01:52:52.222Z,0
2017-11-10T01:53:52.210Z,0
2017-11-10T01:54:52.543Z,0
2017-11-10T01:55:52.184Z,0
2017-11-10T01:56:52.184Z,0
2017-11-10T01:57:52.160Z,0
2017-11-10T01:58:52.479Z,0
2017-11-10T01:59:52.139Z,0
2017-11-10T02:00:52.456Z,0
2017-11-10T02:01:52.098Z,0
2017-11-10T02:02:52.087Z,0
2017-11-10T02:03:52.410Z,0
2017-11-10T02:04:52.054Z,0
2017-11-10T02:05:52.412Z,0
2017-11-10T02:06:52.027Z,0
2017-11-10T02:07:52.012Z,0
2017-11-10T02:08:52.354Z,0
2017-11-10T02:09:51.990Z,0
2017-11-10T02:10:51.990Z,0
2017-11-10T02:11:51.953Z,0
2017-11-10T02:12:51.942Z,0
2017-11-10T02:13:51.929Z,0
2017-11-10T02:14:51.914Z,0
2017-11-10T02:15:52.274Z,0
2017-11-10T02:16:51.887Z,0
2017-11-10T02:17:52.212Z,0
2017-11-10T02:18:51.855Z,0
2017-11-10T02:19:51.840Z,0
2017-11-10T02:20:51.882Z,0
2017-11-10T02:21:51.814Z,0
2017-11-10T02:22:51.809Z,0
2017-11-10T02:23:51.803Z,0
2017-11-10T02:24:51.770Z,0
2017-11-10T02:25:51.757Z,0
2017-11-10T02:26:52.087Z,0
2017-11-10T02:27:52.069Z,0
2017-11-10T02:28:52.060Z,0
2017-11-10T02:29:52.066Z,0
2017-11-10T02:30:51.712Z,0
2017-11-10T02:31:52.026Z,0
2017-11-10T02:32:52.018Z,0
2017-11-10T02:33:51.646Z,0
2017-11-10T02:34:51.631Z,0
2017-11-10T02:35:51.617Z,0
2017-11-10T02:36:51.945Z,0
2017-11-10T02:37:51.962Z,0
2017-11-10T02:38:51.593Z,0
2017-11-10T02:39:51.560Z,0
2017-11-10T02:40:51.912Z,0
2017-11-10T02:41:51.533Z,0
2017-11-10T02:42:51.535Z,0
2017-11-10T02:43:51.505Z,0
2017-11-10T02:44:51.835Z,0
2017-11-10T02:45:51.486Z,0
2017-11-10T02:46:51.462Z,0
2017-11-10T02:47:51.448Z,0
2017-11-10T02:48:51.777Z,0
2017-11-10T02:49:51.417Z,0
2017-11-10T02:50:51.758Z,0
2017-11-10T02:51:51.391Z,0
2017-11-10T02:52:51.719Z,0
2017-11-10T02:53:51.735Z,0
2017-11-10T02:54:51.348Z,0
2017-11-10T02:55:51.684Z,0
2017-11-10T02:56:51.319Z,0
2017-11-10T02:57:51.652Z,0
2017-11-10T02:58:51.632Z,0
2017-11-10T02:59:51.619Z,0
2017-11-10T03:00:51.608Z,0
2017-11-10T03:01:51.600Z,0
2017-11-10T03:02:51.232Z,0
2017-11-10T03:03:51.219Z,0
2017-11-10T03:04:51.565Z,0
2017-11-10T03:05:51.188Z,0
2017-11-10T03:06:51.177Z,0
2017-11-10T03:07:51.160Z,0
2017-11-10T03:08:51.145Z,0
2017-11-10T03:09:51.131Z,0
2017-11-10T03:10:51.461Z,0
2017-11-10T03:11:51.101Z,0
2017-11-10T03:12:51.088Z,0
2017-11-10T03:13:51.074Z,0
2017-11-10T03:14:51.058Z,0
2017-11-10T03:15:51.042Z,0
2017-11-10T03:16:51.375Z,0
2017-11-10T03:17:51.353Z,0
2017-11-10T03:18:51.071Z,0
2017-11-10T03:19:50.984Z,0
2017-11-10T03:20:51.320Z,0
2017-11-10T03:21:51.318Z,0
2017-11-10T03:22:51.282Z,0
2017-11-10T03:23:51.298Z,0
2017-11-10T03:24:50.927Z,0
2017-11-10T03:25:50.896Z,0
2017-11-10T03:26:50.881Z,0
2017-11-10T03:27:50.866Z,0
2017-11-10T03:28:50.867Z,0
2017-11-10T03:29:50.840Z,0
2017-11-10T03:30:51.174Z,0
2017-11-10T03:31:51.170Z,0
2017-11-10T03:32:51.148Z,0
2017-11-10T03:33:50.776Z,0
2017-11-10T03:34:51.107Z,0
2017-11-10T03:35:50.747Z,0
2017-11-10T03:36:50.735Z,0
2017-11-10T03:37:50.717Z,0
2017-11-10T03:38:50.704Z,0
2017-11-10T03:39:50.689Z,0
2017-11-10T03:40:50.673Z,0
2017-11-10T03:41:50.659Z,0
2017-11-10T03:42:50.644Z,0
2017-11-10T03:43:50.628Z,0
2017-11-10T03:44:50.629Z,0
2017-11-10T03:45:50.620Z,0
2017-11-10T03:46:50.584Z,0
2017-11-10T03:47:50.569Z,0
2017-11-10T03:48:50.897Z,0
2017-11-10T03:49:50.882Z,0
2017-11-10T03:50:50.866Z,0
2017-11-10T03:51:50.856Z,0
2017-11-10T03:52:50.493Z,0
2017-11-10T03:53:50.477Z,0
2017-11-10T03:54:50.468Z,0
2017-11-10T03:55:50.449Z,0
2017-11-10T03:56:50.435Z,0
2017-11-10T03:57:50.764Z,0
2017-11-10T03:58:50.404Z,0
2017-11-10T03:59:50.388Z,0
2017-11-10T04:00:50.374Z,0
2017-11-10T04:01:50.704Z,0
2017-11-10T04:02:50.345Z,0
2017-11-10T04:03:50.675Z,0
2017-11-10T04:04:50.315Z,0
2017-11-10T04:05:50.642Z,0
2017-11-10T04:06:50.625Z,0
2017-11-10T04:07:50.609Z,0
2017-11-10T04:08:50.256Z,0
2017-11-10T04:09:50.240Z,0
2017-11-10T04:10:50.576Z,0
2017-11-10T04:11:50.557Z,0
2017-11-10T04:12:50.196Z,0
2017-11-10T04:13:50.181Z,0
2017-11-10T04:14:50.165Z,0
2017-11-10T04:15:50.153Z,0
2017-11-10T04:16:50.138Z,0
2017-11-10T04:17:50.120Z,0
2017-11-10T04:18:50.106Z,0
2017-11-10T04:19:50.093Z,0
2017-11-10T04:20:50.078Z,0
2017-11-10T04:21:50.061Z,0
2017-11-10T04:22:50.048Z,0
2017-11-10T04:23:50.032Z,0
2017-11-10T04:24:50.360Z,0
2017-11-10T04:25:50.350Z,0
2017-11-10T04:26:49.987Z,0
2017-11-10T04:27:49.973Z,0
2017-11-10T04:28:49.965Z,0
2017-11-10T04:29:49.941Z,0
2017-11-10T04:30:50.267Z,0
2017-11-10T04:31:49.912Z,0
2017-11-10T04:32:50.241Z,0
2017-11-10T04:33:50.232Z,0
2017-11-10T04:34:50.209Z,0
2017-11-10T04:35:49.852Z,0
2017-11-10T04:36:50.190Z,0
2017-11-10T04:37:50.166Z,0
2017-11-10T04:38:50.159Z,0
2017-11-10T04:39:50.133Z,0
2017-11-10T04:40:50.122Z,0
2017-11-10T04:41:50.107Z,0
2017-11-10T04:42:50.100Z,0
2017-11-10T04:43:49.735Z,0
2017-11-10T04:44:49.753Z,0
2017-11-10T04:45:50.071Z,0
2017-11-10T04:46:50.030Z,0
2017-11-10T04:47:50.031Z,0
2017-11-10T04:48:49.659Z,0
2017-11-10T04:49:49.644Z,0
2017-11-10T04:50:49.630Z,0
2017-11-10T04:51:49.615Z,0
2017-11-10T04:52:49.601Z,0
2017-11-10T04:53:49.927Z,0
2017-11-10T04:54:49.917Z,0
2017-11-10T04:55:49.556Z,0
2017-11-10T04:56:49.562Z,0
2017-11-10T04:57:49.527Z,0
2017-11-10T04:58:49.511Z,0
2017-11-10T04:59:49.499Z,0
2017-11-10T05:00:49.485Z,0
2017-11-10T05:01:49.486Z,0
2017-11-10T05:02:49.801Z,0
2017-11-10T05:03:49.439Z,0
2017-11-10T05:04:49.421Z,0
2017-11-10T05:05:49.408Z,0
2017-11-10T05:06:49.392Z,0
2017-11-10T05:07:49.721Z,0
2017-11-10T05:08:49.705Z,0
2017-11-10T05:09:49.349Z,0
2017-11-10T05:10:49.336Z,0
2017-11-10T05:11:49.664Z,0
2017-11-10T05:12:49.645Z,0
2017-11-10T05:13:49.291Z,0
2017-11-10T05:14:49.625Z,0
2017-11-10T05:15:49.604Z,0
2017-11-10T05:16:49.590Z,0
2017-11-10T05:17:49.583Z,0
2017-11-10T05:18:49.567Z,0
2017-11-10T05:19:49.208Z,0
2017-11-10T05:20:49.187Z,0
2017-11-10T05:21:49.529Z,0
2017-11-10T05:22:49.175Z,0
2017-11-10T05:23:49.166Z,0
2017-11-10T05:24:49.134Z,0
2017-11-10T05:25:49.124Z,0
2017-11-10T05:26:49.478Z,0
2017-11-10T05:27:49.086Z,0
2017-11-10T05:28:49.073Z,0
2017-11-10T05:29:49.397Z,0
2017-11-10T05:30:49.041Z,0
2017-11-10T05:31:49.372Z,0
2017-11-10T05:32:49.013Z,0
2017-11-10T05:33:49.002Z,0
2017-11-10T05:34:48.985Z,0
2017-11-10T05:35:48.974Z,0
2017-11-10T05:36:48.954Z,0
2017-11-10T05:37:48.953Z,0
2017-11-10T05:38:49.267Z,0
2017-11-10T05:39:48.914Z,0
2017-11-10T05:40:48.901Z,0
2017-11-10T05:41:48.881Z,0
2017-11-10T05:42:49.208Z,0
2017-11-10T05:43:48.853Z,0
2017-11-10T05:44:49.182Z,0
2017-11-10T05:45:48.831Z,0
2017-11-10T05:46:49.165Z,0
2017-11-10T05:47:48.809Z,0
2017-11-10T05:48:48.780Z,0
2017-11-10T05:49:49.113Z,0
2017-11-10T05:50:48.753Z,0
2017-11-10T05:51:49.081Z,0
2017-11-10T05:52:49.066Z,0
2017-11-10T05:53:49.048Z,0
2017-11-10T05:54:48.693Z,0
2017-11-10T05:55:49.040Z,0
2017-11-10T05:56:48.663Z,0
2017-11-10T05:57:48.995Z,0
2017-11-10T05:58:48.634Z,0
2017-11-10T05:59:48.620Z,0
2017-11-10T06:00:48.607Z,0
2017-11-10T06:01:48.590Z,0
2017-11-10T06:02:48.583Z,0
2017-11-10T06:03:48.914Z,0
2017-11-10T06:04:48.548Z,0
2017-11-10T06:05:48.540Z,0
2017-11-10T06:06:48.545Z,0
2017-11-10T06:07:48.858Z,0
2017-11-10T06:08:48.496Z,1.99
2017-11-10T06:09:48.829Z,0.85
2017-11-10T06:10:48.468Z,1.61
2017-11-10T06:11:48.447Z,1.89
2017-11-10T06:12:48.431Z,1.99
2017-11-10T06:13:48.757Z,4.07
2017-11-10T06:14:48.402Z,3.79
2017-11-10T06:15:48.389Z,4.83
2017-11-10T06:16:48.742Z,5.4
2017-11-10T06:17:48.703Z,4.64
2017-11-10T06:18:48.343Z,3.6
2017-11-10T06:19:48.350Z,5.59
2017-11-10T06:20:48.658Z,5.49
2017-11-10T06:21:48.301Z,5.4
2017-11-10T06:22:48.636Z,5.68
2017-11-10T06:23:48.280Z,5.21
2017-11-10T06:24:48.257Z,6.07
2017-11-10T06:25:48.586Z,7.01
2017-11-10T06:26:48.570Z,6.54
2017-11-10T06:27:48.214Z,6.26
2017-11-10T06:28:48.199Z,6.54
2017-11-10T06:29:48.183Z,6.54
2017-11-10T06:30:48.182Z,5.97
2017-11-10T06:31:48.155Z,6.63
2017-11-10T06:32:48.139Z,6.45
2017-11-10T06:33:48.122Z,5.49
2017-11-10T06:34:48.110Z,6.54
2017-11-10T06:35:48.096Z,6.73
2017-11-10T06:36:48.422Z,6.07
2017-11-10T06:37:48.407Z,5.02
2017-11-10T06:38:48.051Z,4.74
2017-11-10T06:39:48.037Z,5.21
2017-11-10T06:40:48.037Z,5.11
2017-11-10T06:41:48.353Z,4.64
2017-11-10T06:42:48.354Z,5.02
2017-11-10T06:43:47.976Z,4.55
2017-11-10T06:44:47.983Z,4.26
2017-11-10T06:45:47.948Z,4.07
2017-11-10T06:46:47.934Z,4.45
2017-11-10T06:47:47.925Z,4.83
2017-11-10T06:48:48.245Z,5.21
2017-11-10T06:49:47.889Z,5.4
2017-11-10T06:50:47.874Z,5.3
2017-11-10T06:51:47.858Z,3.13
2017-11-10T06:52:47.844Z,1.8
2017-11-10T06:53:48.175Z,1.8
2017-11-10T06:54:48.157Z,1.04
2017-11-10T06:55:48.141Z,1.8
2017-11-10T06:56:47.786Z,1.61
2017-11-10T06:57:47.790Z,1.32
2017-11-10T06:58:48.098Z,0.85
2017-11-10T06:59:47.741Z,0.66
2017-11-10T07:00:48.066Z,1.04
2017-11-10T07:01:48.084Z,1.51
2017-11-10T07:02:47.697Z,1.8
2017-11-10T07:03:47.683Z,1.89
2017-11-10T07:04:48.010Z,0.95
2017-11-10T07:05:47.650Z,1.8
2017-11-10T07:06:47.979Z,1.89
2017-11-10T07:07:47.991Z,1.42
2017-11-10T07:08:47.624Z,0.28
2017-11-10T07:09:47.595Z,0
2017-11-10T07:10:47.580Z,0
2017-11-10T07:11:47.921Z,0
2017-11-10T07:12:47.554Z,0
2017-11-10T07:13:47.877Z,0
2017-11-10T07:14:47.520Z,0
2017-11-10T07:15:47.525Z,0
2017-11-10T07:16:47.841Z,0
2017-11-10T07:17:47.476Z,0
2017-11-10T07:18:47.464Z,0
2017-11-10T07:19:47.448Z,0
2017-11-10T07:20:47.432Z,0
2017-11-10T07:21:47.767Z,0
2017-11-10T07:22:47.403Z,0
2017-11-10T07:23:47.389Z,0
2017-11-10T07:24:47.715Z,0
2017-11-10T07:25:47.359Z,0
2017-11-10T07:26:47.345Z,0
2017-11-10T07:27:47.330Z,0
2017-11-10T07:28:47.318Z,0
2017-11-10T07:29:47.300Z,0
2017-11-10T07:30:47.629Z,0
2017-11-10T07:31:47.272Z,0
2017-11-10T07:32:47.598Z,0
2017-11-10T07:33:47.240Z,0
2017-11-10T07:34:47.227Z,0
2017-11-10T07:35:47.211Z,0
2017-11-10T07:36:47.206Z,0
2017-11-10T07:37:47.525Z,0
2017-11-10T07:38:47.522Z,0
2017-11-10T07:39:47.497Z,0
2017-11-10T07:40:47.482Z,0
2017-11-10T07:41:47.494Z,0
2017-11-10T07:42:47.464Z,0
2017-11-10T07:43:47.095Z,0
2017-11-10T07:44:47.093Z,0
2017-11-10T07:45:47.064Z,0
2017-11-10T07:46:47.391Z,0
2017-11-10T07:47:47.386Z,0
2017-11-10T07:48:47.390Z,0
2017-11-10T07:49:47.355Z,0
2017-11-10T07:50:47.335Z,0
2017-11-10T07:51:47.334Z,0
2017-11-10T07:52:46.965Z,0
2017-11-10T07:53:46.945Z,0
2017-11-10T07:54:46.929Z,0
2017-11-10T07:55:47.270Z,0
2017-11-10T07:56:46.917Z,0
2017-11-10T07:57:47.226Z,0
2017-11-10T07:58:46.873Z,0
2017-11-10T07:59:46.857Z,0
2017-11-10T08:00:46.842Z,0
2017-11-10T08:01:46.830Z,0
2017-11-10T08:02:46.815Z,0
2017-11-10T08:03:47.165Z,0
2017-11-10T08:04:46.798Z,0
2017-11-10T08:05:46.766Z,0
2017-11-10T08:06:46.782Z,0
2017-11-10T08:07:46.738Z,0
2017-11-10T08:08:47.077Z,0
2017-11-10T08:09:47.071Z,0
2017-11-10T08:10:47.035Z,0
2017-11-10T08:11:46.683Z,0
2017-11-10T08:12:46.664Z,0
2017-11-10T08:13:46.993Z,0
2017-11-10T08:14:46.635Z,0
2017-11-10T08:15:46.973Z,0
2017-11-10T08:16:46.945Z,0
2017-11-10T08:17:46.935Z,0
2017-11-10T08:18:46.573Z,0
2017-11-10T08:19:46.557Z,0
2017-11-10T08:20:46.889Z,0
2017-11-10T08:21:46.872Z,0
2017-11-10T08:22:46.514Z,0
2017-11-10T08:23:46.503Z,0
2017-11-10T08:24:46.840Z,0
2017-11-10T08:25:46.480Z,0
2017-11-10T08:26:46.455Z,0
2017-11-10T08:27:46.787Z,0
2017-11-10T08:28:46.429Z,0
2017-11-10T08:29:46.752Z,0
2017-11-10T08:30:46.395Z,0
2017-11-10T08:31:46.734Z,0
2017-11-10T08:32:46.367Z,0
2017-11-10T08:33:46.365Z,0
2017-11-10T08:34:46.336Z,0
2017-11-10T08:35:46.322Z,0
2017-11-10T08:36:46.306Z,0
2017-11-10T08:37:46.291Z,0
2017-11-10T08:38:46.277Z,0
2017-11-10T08:39:46.268Z,0
2017-11-10T08:40:46.588Z,0
2017-11-10T08:41:46.233Z,0
2017-11-10T08:42:46.218Z,0
2017-11-10T08:43:46.563Z,0
2017-11-10T08:44:46.531Z,0
2017-11-10T08:45:46.176Z,0
2017-11-10T08:46:46.158Z,0
2017-11-10T08:47:46.485Z,0
2017-11-10T08:48:46.127Z,0
2017-11-10T08:49:46.115Z,0
2017-11-10T08:50:46.448Z,0
2017-11-10T08:51:46.099Z,0
2017-11-10T08:52:46.417Z,0
2017-11-10T08:53:46.406Z,0
2017-11-10T08:54:46.041Z,0
2017-11-10T08:55:46.367Z,0
2017-11-10T08:56:46.025Z,0
2017-11-10T08:57:45.995Z,0
2017-11-10T08:58:46.342Z,0
2017-11-10T08:59:45.965Z,0
2017-11-10T09:00:46.297Z,0
2017-11-10T09:01:46.285Z,0
2017-11-10T09:02:45.923Z,0
2017-11-10T09:03:45.908Z,0
2017-11-10T09:04:45.906Z,0
2017-11-10T09:05:46.222Z,0
2017-11-10T09:06:46.216Z,0
2017-11-10T09:07:46.197Z,0
2017-11-10T09:08:45.836Z,0
2017-11-10T09:09:45.838Z,0
2017-11-10T09:10:45.806Z,0
2017-11-10T09:11:46.132Z,0
2017-11-10T09:12:45.775Z,0
2017-11-10T09:13:45.759Z,0
2017-11-10T09:14:45.780Z,0
2017-11-10T09:15:46.073Z,0
2017-11-10T09:16:46.071Z,0
2017-11-10T09:17:45.711Z,0
2017-11-10T09:18:45.706Z,0
2017-11-10T09:19:46.041Z,0
2017-11-10T09:20:46.000Z,0
2017-11-10T09:21:45.997Z,0
2017-11-10T09:22:45.976Z,0
2017-11-10T09:23:45.959Z,0
2017-11-10T09:24:45.600Z,0
2017-11-10T09:25:45.585Z,0
2017-11-10T09:26:45.932Z,0
2017-11-10T09:27:45.902Z,0
2017-11-10T09:28:45.881Z,0
2017-11-10T09:29:45.546Z,0
2017-11-10T09:30:45.512Z,0
2017-11-10T09:31:45.495Z,0
2017-11-10T09:32:45.480Z,0
2017-11-10T09:33:45.467Z,0
2017-11-10T09:34:45.452Z,0
2017-11-10T09:35:45.780Z,0
2017-11-10T09:36:45.793Z,0
2017-11-10T09:37:45.407Z,0
2017-11-10T09:38:45.762Z,0
2017-11-10T09:39:45.721Z,0
2017-11-10T09:40:45.365Z,0
2017-11-10T09:41:45.725Z,0
2017-11-10T09:42:45.332Z,0
2017-11-10T09:43:45.662Z,0
2017-11-10T09:44:45.321Z,0
2017-11-10T09:45:45.291Z,0
2017-11-10T09:46:45.617Z,0
2017-11-10T09:47:45.606Z,0
2017-11-10T09:48:45.246Z,0
2017-11-10T09:49:45.232Z,0
2017-11-10T09:50:45.215Z,0
2017-11-10T09:51:45.208Z,0
2017-11-10T09:52:45.205Z,0
2017-11-10T09:53:45.172Z,0
2017-11-10T09:54:45.518Z,0
2017-11-10T09:55:45.145Z,0
2017-11-10T09:56:45.475Z,0
2017-11-10T09:57:45.138Z,0
2017-11-10T09:58:45.449Z,0
2017-11-10T09:59:45.453Z,0
2017-11-10T10:00:45.077Z,0
2017-11-10T10:01:45.396Z,0
2017-11-10T10:02:45.061Z,0
2017-11-10T10:03:45.028Z,0
2017-11-10T10:04:45.358Z,0
2017-11-10T10:05:45.353Z,0
2017-11-10T10:06:44.983Z,0
2017-11-10T10:07:45.313Z,0
2017-11-10T10:08:45.298Z,0
2017-11-10T10:09:45.281Z,0
2017-11-10T10:10:45.287Z,0
2017-11-10T10:11:45.288Z,0
2017-11-10T10:12:45.236Z,0
2017-11-10T10:13:44.885Z,0
2017-11-10T10:14:44.867Z,0
2017-11-10T10:15:45.218Z,0
2017-11-10T10:16:44.845Z,0
2017-11-10T10:17:44.832Z,0
2017-11-10T10:18:45.151Z,0
2017-11-10T10:19:44.792Z,0
2017-11-10T10:20:44.777Z,0
2017-11-10T10:21:45.107Z,0
2017-11-10T10:22:45.093Z,0
2017-11-10T10:23:44.736Z,0
2017-11-10T10:24:44.718Z,0
2017-11-10T10:25:45.055Z,0
2017-11-10T10:26:44.689Z,0
2017-11-10T10:27:44.675Z,0
2017-11-10T10:28:45.004Z,0
2017-11-10T10:29:44.995Z,0
2017-11-10T10:30:44.637Z,0
2017-11-10T10:31:44.616Z,0
2017-11-10T10:32:44.946Z,0
2017-11-10T10:33:44.592Z,0
2017-11-10T10:34:44.583Z,0
2017-11-10T10:35:44.921Z,0
2017-11-10T10:36:44.545Z,0
2017-11-10T10:37:44.527Z,0
2017-11-10T10:38:44.535Z,0
2017-11-10T10:39:44.845Z,0
2017-11-10T10:40:44.827Z,0
2017-11-10T10:41:44.815Z,0
2017-11-10T10:42:44.800Z,0
2017-11-10T10:43:44.791Z,0
2017-11-10T10:44:44.427Z,0
2017-11-10T10:45:44.755Z,0
2017-11-10T10:46:44.395Z,0
2017-11-10T10:47:44.724Z,0
2017-11-10T10:48:44.386Z,0
2017-11-10T10:49:44.355Z,0
2017-11-10T10:50:44.360Z,0
2017-11-10T10:51:44.364Z,0
2017-11-10T10:52:44.649Z,0
2017-11-10T10:53:44.312Z,0
2017-11-10T10:54:44.280Z,0
2017-11-10T10:55:44.264Z,0
2017-11-10T10:56:44.588Z,0
2017-11-10T10:57:44.599Z,0
2017-11-10T10:58:44.221Z,0
2017-11-10T10:59:44.207Z,0
2017-11-10T11:00:44.532Z,0
2017-11-10T11:01:44.177Z,0
2017-11-10T11:02:44.163Z,0
2017-11-10T11:03:44.148Z,0
2017-11-10T11:04:44.480Z,0
2017-11-10T11:05:44.480Z,0
2017-11-10T11:06:44.118Z,0
2017-11-10T11:07:44.433Z,0
2017-11-10T11:08:44.437Z,0
2017-11-10T11:09:44.424Z,0
2017-11-10T11:10:44.407Z,0
2017-11-10T11:11:44.375Z,0
2017-11-10T11:12:44.021Z,0
2017-11-10T11:13:44.365Z,0
2017-11-10T11:14:43.990Z,0
2017-11-10T11:15:44.344Z,0
2017-11-10T11:16:43.958Z,0
2017-11-10T11:17:44.284Z,0
2017-11-10T11:18:43.930Z,0
2017-11-10T11:19:44.255Z,0
2017-11-10T11:20:44.245Z,0
2017-11-10T11:21:43.884Z,0
2017-11-10T11:22:44.215Z,0
2017-11-10T11:23:44.199Z,0
2017-11-10T11:24:43.841Z,0
2017-11-10T11:25:43.831Z,0
2017-11-10T11:26:43.812Z,0
2017-11-10T11:27:44.144Z,0
2017-11-10T11:28:43.781Z,0
2017-11-10T11:29:43.771Z,0
2017-11-10T11:30:44.116Z,0
2017-11-10T11:31:44.099Z,0
2017-11-10T11:32:43.724Z,0
2017-11-10T11:33:43.713Z,0
2017-11-10T11:34:43.695Z,0
2017-11-10T11:35:44.025Z,0
2017-11-10T11:36:43.671Z,0
2017-11-10T11:37:43.658Z,0
2017-11-10T11:38:43.665Z,0
2017-11-10T11:39:43.621Z,0
2017-11-10T11:40:43.609Z,0
2017-11-10T11:41:43.599Z,0
2017-11-10T11:42:43.580Z,0
2017-11-10T11:43:43.906Z,0
2017-11-10T11:44:43.551Z,0
2017-11-10T11:45:43.880Z,0
2017-11-10T11:46:43.865Z,0
2017-11-10T11:47:43.505Z,0
2017-11-10T11:48:43.489Z,0
2017-11-10T11:49:43.482Z,0
2017-11-10T11:50:43.460Z,0
2017-11-10T11:51:43.449Z,0
2017-11-10T11:52:43.449Z,0
2017-11-10T11:53:43.758Z,0
2017-11-10T11:54:43.744Z,0
2017-11-10T11:55:43.403Z,0
2017-11-10T11:56:43.379Z,0
2017-11-10T11:57:43.367Z,0
2017-11-10T11:58:43.345Z,0
2017-11-10T11:59:43.672Z,0
2017-11-10T12:00:43.660Z,0
2017-11-10T12:01:43.644Z,0
2017-11-10T12:02:43.291Z,0
2017-11-10T12:03:43.271Z,0
2017-11-10T12:04:43.257Z,0
2017-11-10T12:05:43.582Z,0
2017-11-10T12:06:43.572Z,0
2017-11-10T12:07:43.211Z,0
2017-11-10T12:08:43.197Z,0
2017-11-10T12:09:43.184Z,0
2017-11-10T12:10:43.528Z,0
2017-11-10T12:11:43.155Z,0
2017-11-10T12:12:43.160Z,0
2017-11-10T12:13:43.141Z,0
2017-11-10T12:14:43.110Z,0
2017-11-10T12:15:43.449Z,0
2017-11-10T12:16:43.422Z,0
2017-11-10T12:17:43.067Z,0
2017-11-10T12:18:43.054Z,0
2017-11-10T12:19:43.037Z,0
2017-11-10T12:20:43.036Z,0
2017-11-10T12:21:43.008Z,0
2017-11-10T12:22:43.012Z,0
2017-11-10T12:23:42.978Z,0
2017-11-10T12:24:43.329Z,0
2017-11-10T12:25:42.949Z,0
2017-11-10T12:26:42.936Z,0
2017-11-10T12:27:42.944Z,0
2017-11-10T12:28:43.297Z,0
2017-11-10T12:29:43.249Z,0
2017-11-10T12:30:42.911Z,0
2017-11-10T12:31:42.866Z,0
2017-11-10T12:32:43.218Z,0
2017-11-10T12:33:43.177Z,0
2017-11-10T12:34:42.819Z,0
2017-11-10T12:35:43.149Z,0
2017-11-10T12:36:43.129Z,0
2017-11-10T12:37:42.775Z,0
2017-11-10T12:38:42.762Z,0
2017-11-10T12:39:43.112Z,0
2017-11-10T12:40:42.743Z,0
2017-11-10T12:41:42.768Z,0
2017-11-10T12:42:43.047Z,0
2017-11-10T12:43:43.036Z,0
2017-11-10T12:44:43.032Z,0
2017-11-10T12:45:42.657Z,0
2017-11-10T12:46:42.645Z,0
2017-11-10T12:47:42.975Z,0
2017-11-10T12:48:42.955Z,0
2017-11-10T12:49:42.598Z,0
2017-11-10T12:50:57.549Z,0
2017-11-10T12:51:42.600Z,0
2017-11-10T12:52:42.617Z,0
2017-11-10T12:53:42.691Z,0
2017-11-10T12:54:42.707Z,0
2017-11-10T12:55:42.629Z,0
2017-11-10T12:56:43.080Z,0
2017-11-10T12:57:42.577Z,0
2017-11-10T12:58:42.980Z,0
2017-11-10T12:59:42.564Z,0
2017-11-10T13:00:42.968Z,0
2017-11-10T13:01:42.993Z,0
2017-11-10T13:02:42.922Z,0
2017-11-10T13:03:42.846Z,0
2017-11-10T13:04:42.939Z,0
2017-11-10T13:05:42.549Z,0
2017-11-10T13:06:42.348Z,0
2017-11-10T13:07:42.675Z,0
2017-11-10T13:08:42.660Z,0
2017-11-10T13:09:42.305Z,0
2017-11-10T13:10:42.289Z,0
2017-11-10T13:11:42.290Z,0
2017-11-10T13:12:42.279Z,0
2017-11-10T13:13:42.591Z,0
2017-11-10T13:14:42.239Z,0
2017-11-10T13:15:42.558Z,0
2017-11-10T13:16:42.201Z,0
2017-11-10T13:17:42.584Z,0
2017-11-10T13:18:42.173Z,0
2017-11-10T13:19:42.158Z,0
2017-11-10T13:20:42.142Z,0
2017-11-10T13:21:42.476Z,0
2017-11-10T13:22:42.113Z,0
2017-11-10T13:23:42.098Z,0
2017-11-10T13:24:42.085Z,0
2017-11-10T13:25:42.412Z,0
2017-11-10T13:26:42.400Z,0
2017-11-10T13:27:42.041Z,0
2017-11-10T13:28:42.037Z,0
2017-11-10T13:29:42.382Z,0
2017-11-10T13:30:41.996Z,0
2017-11-10T13:31:41.997Z,0.09
2017-11-10T13:32:41.967Z,0.19
2017-11-10T13:33:41.954Z,0
2017-11-10T13:34:41.937Z,0
2017-11-10T13:35:42.283Z,0
2017-11-10T13:36:42.253Z,0
2017-11-10T13:37:42.237Z,0
2017-11-10T13:38:42.230Z,0
2017-11-10T13:39:41.886Z,0
2017-11-10T13:40:42.191Z,0
2017-11-10T13:41:42.182Z,0
2017-11-10T13:42:41.822Z,0
2017-11-10T13:43:41.808Z,0
2017-11-10T13:44:41.800Z,0
2017-11-10T13:45:41.780Z,0
2017-11-10T13:46:42.129Z,0
2017-11-10T13:47:42.092Z,0
2017-11-10T13:48:42.084Z,0
2017-11-10T13:49:41.737Z,0.19
2017-11-10T13:50:42.052Z,0
2017-11-10T13:51:42.048Z,0
2017-11-10T13:52:41.677Z,0
2017-11-10T13:53:41.664Z,0
2017-11-10T13:54:41.657Z,0
2017-11-10T13:55:41.976Z,0
2017-11-10T13:56:41.957Z,0
2017-11-10T13:57:41.606Z,0
2017-11-10T13:58:41.589Z,0
2017-11-10T13:59:41.920Z,0
2017-11-10T14:00:41.906Z,0
2017-11-10T14:01:41.892Z,0
2017-11-10T14:02:41.529Z,0
2017-11-10T14:03:41.524Z,0
2017-11-10T14:04:41.501Z,0
2017-11-10T14:05:41.827Z,0
2017-11-10T14:06:41.472Z,0
2017-11-10T14:07:41.457Z,0
2017-11-10T14:08:41.447Z,0
2017-11-10T14:09:41.426Z,0
2017-11-10T14:10:41.411Z,0
2017-11-10T14:11:41.759Z,0
2017-11-10T14:12:41.724Z,0
2017-11-10T14:13:41.368Z,0
2017-11-10T14:14:41.714Z,0
2017-11-10T14:15:41.338Z,0
2017-11-10T14:16:41.325Z,0
2017-11-10T14:17:41.309Z,0
2017-11-10T14:18:41.295Z,0
2017-11-10T14:19:41.280Z,0
2017-11-10T14:20:41.265Z,0
2017-11-10T14:21:41.264Z,0
2017-11-10T14:22:41.578Z,0
2017-11-10T14:23:41.584Z,0
2017-11-10T14:24:41.549Z,0
2017-11-10T14:25:41.532Z,0
2017-11-10T14:26:41.201Z,0
2017-11-10T14:27:41.160Z,0
2017-11-10T14:28:41.146Z,0
2017-11-10T14:29:41.472Z,0
2017-11-10T14:30:41.458Z,0
2017-11-10T14:31:41.105Z,0
2017-11-10T14:32:41.429Z,0
2017-11-10T14:33:41.072Z,0
2017-11-10T14:34:41.059Z,0
2017-11-10T14:35:41.057Z,0
2017-11-10T14:36:41.049Z,0
2017-11-10T14:37:41.013Z,0
2017-11-10T14:38:41.353Z,0
2017-11-10T14:39:40.982Z,0
2017-11-10T14:40:40.967Z,0